Terminal Aerodrome Forecast
Issued by NWS

Home | Current Version | Previous Version | Text Only | Print | Product List | Glossary Off
Versions: 1 2 3 4 5 6 7 8 9 10 11 12 13 14 15 16 17 18 19 20 21 22 23 24 25 26 27 28 29 30 31 32 33

000
FTUS43 KLOT 261403 AAA
TAFORD
TAF AMD
KORD 261403Z 2614/2718 04011KT 5SM BR OVC005
     FM261600 05012KT 6SM BR OVC009
     FM261800 05013KT P6SM OVC015
     FM270200 07013KT P6SM BKN025 OVC050
     FM271500 07016KT P6SM SCT025 OVC150=

USA.gov is the U.S. government's official web portal to all federal, state and local government web resources and services.